Time;durP1;ratioP1;P1;durP2;ratioP2;P2;SDS_P1;SDS_P2;PMS_P1;PMS_P2;Temp;Humidity;BMP_temperature;BMP_pressure;BME280_temperature;BME280_humidity;BME280_pressure;Samples;Min_cycle;Max_cycle;Signal;HPM_P1;HPM_P2
2023/10/19 00:00:21;;;;;;;14.98;7.40;;;20.70;69.00;;;;;;6214365;28;20026;-63
2023/10/19 00:03:24;;;;;;;15.90;7.20;;;20.70;69.00;;;;;;6214683;28;20069;-65
2023/10/19 00:06:25;;;;;;;14.73;7.38;;;20.70;69.00;;;;;;6191781;28;20030;-64
2023/10/19 00:09:31;;;;;;;13.75;6.70;;;20.70;68.90;;;;;;6213559;28;20232;-65
2023/10/19 00:12:32;;;;;;;19.83;7.18;;;20.70;68.80;;;;;;6209983;28;20706;-65
2023/10/19 00:15:51;;;;;;;16.63;6.63;;;20.70;68.70;;;;;;6196825;28;20541;-65
2023/10/19 00:18:52;;;;;;;20.58;7.72;;;20.80;68.70;;;;;;6166865;28;20603;-65
2023/10/19 00:22:07;;;;;;;21.10;8.00;;;20.80;68.60;;;;;;6208982;28;20719;-66
2023/10/19 00:25:13;;;;;;;14.23;7.20;;;20.70;68.60;;;;;;6210238;28;20096;-65
2023/10/19 00:28:15;;;;;;;20.85;7.78;;;20.70;68.70;;;;;;6207232;28;20029;-65
2023/10/19 00:31:16;;;;;;;12.48;7.15;;;20.70;68.80;;;;;;6214142;28;20076;-65
2023/10/19 00:34:21;;;;;;;20.77;7.57;;;20.60;68.90;;;;;;6216459;28;20030;-64
2023/10/19 00:37:26;;;;;;;15.65;7.57;;;20.50;69.20;;;;;;6191839;28;20046;-65
2023/10/19 00:40:36;;;;;;;16.40;7.80;;;20.50;69.50;;;;;;6205830;28;20030;-66
2023/10/19 00:43:45;;;;;;;17.55;7.53;;;20.40;69.80;;;;;;6209829;28;20069;-66
2023/10/19 00:46:50;;;;;;;13.57;7.40;;;20.40;70.00;;;;;;6211382;28;20478;-64
2023/10/19 00:49:53;;;;;;;12.98;6.35;;;20.40;70.10;;;;;;6197277;28;20061;-65
2023/10/19 00:52:57;;;;;;;14.73;6.43;;;20.40;70.30;;;;;;6215439;28;20044;-66
2023/10/19 00:56:00;;;;;;;12.35;5.95;;;20.40;70.40;;;;;;6204279;28;20034;-65
2023/10/19 00:59:14;;;;;;;11.70;6.18;;;20.40;70.60;;;;;;6202230;28;20113;-64
2023/10/19 01:05:35;;;;;;;10.27;5.63;;;20.40;71.00;;;;;;6208363;28;20129;-64
2023/10/19 01:08:46;;;;;;;17.67;6.40;;;20.40;71.10;;;;;;6192297;28;20077;-65
2023/10/19 01:11:49;;;;;;;13.85;5.55;;;20.40;71.10;;;;;;6211987;28;20041;-64
2023/10/19 01:15:13;;;;;;;11.80;6.20;;;20.40;71.10;;;;;;6210281;28;20034;-66
2023/10/19 01:18:16;;;;;;;13.70;6.28;;;20.40;71.10;;;;;;6212684;28;20109;-66
2023/10/19 01:21:21;;;;;;;16.17;6.28;;;20.40;70.90;;;;;;6204585;28;20580;-65
2023/10/19 01:24:40;;;;;;;20.17;8.40;;;20.50;70.80;;;;;;6203285;28;20034;-67
2023/10/19 01:27:41;;;;;;;13.52;6.65;;;20.50;70.70;;;;;;6201937;28;20046;-65
2023/10/19 01:30:42;;;;;;;15.35;7.57;;;20.40;70.60;;;;;;6213235;28;20112;-64
2023/10/19 01:33:46;;;;;;;14.50;7.05;;;20.40;70.70;;;;;;6192408;28;20034;-66
2023/10/19 01:36:50;;;;;;;14.57;7.07;;;20.40;70.50;;;;;;6210206;28;20042;-65
2023/10/19 01:39:52;;;;;;;26.13;7.60;;;20.40;70.40;;;;;;6207192;28;20026;-66
2023/10/19 01:42:52;;;;;;;14.57;7.40;;;20.40;70.30;;;;;;6192878;28;20053;-66
2023/10/19 01:45:56;;;;;;;16.70;7.28;;;20.40;70.20;;;;;;6194872;28;20203;-65
2023/10/19 01:48:57;;;;;;;11.55;6.35;;;20.40;70.20;;;;;;6201546;28;20042;-66
2023/10/19 01:51:58;;;;;;;16.75;7.43;;;20.50;70.10;;;;;;6201459;28;20470;-65
2023/10/19 01:55:03;;;;;;;16.23;7.03;;;20.50;70.00;;;;;;6199942;28;20036;-65
2023/10/19 01:58:05;;;;;;;17.25;7.80;;;20.50;70.00;;;;;;6202026;28;20367;-67
2023/10/19 02:04:29;;;;;;;19.98;7.50;;;20.40;69.70;;;;;;6152341;28;20042;-66
2023/10/19 02:07:30;;;;;;;23.20;8.38;;;20.50;69.80;;;;;;6187716;28;20565;-67
2023/10/19 02:10:32;;;;;;;12.82;7.22;;;20.40;69.90;;;;;;6179657;28;20067;-66
2023/10/19 02:13:33;;;;;;;16.20;7.80;;;20.40;70.00;;;;;;6187131;28;20045;-66
2023/10/19 02:16:36;;;;;;;13.90;7.75;;;20.40;70.20;;;;;;6187036;28;20443;-66
2023/10/19 02:19:37;;;;;;;15.93;7.50;;;20.30;70.20;;;;;;6168355;28;20601;-65
2023/10/19 02:22:38;;;;;;;13.82;7.47;;;20.30;70.30;;;;;;6186960;28;20038;-66
2023/10/19 02:25:39;;;;;;;17.80;8.38;;;20.30;70.50;;;;;;6189103;28;20114;-64
2023/10/19 02:28:43;;;;;;;16.13;7.80;;;20.20;70.70;;;;;;6171384;28;20038;-64
2023/10/19 02:31:45;;;;;;;18.50;7.75;;;20.20;71.10;;;;;;6171308;28;20113;-65
2023/10/19 02:34:46;;;;;;;14.93;7.47;;;20.20;71.40;;;;;;6186954;28;20050;-64
2023/10/19 02:37:47;;;;;;;15.02;8.15;;;20.20;71.60;;;;;;6187286;28;20763;-65
2023/10/19 02:40:48;;;;;;;13.20;7.10;;;20.20;71.60;;;;;;6188271;28;20089;-65
2023/10/19 02:44:00;;;;;;;22.17;8.30;;;20.20;71.50;;;;;;6190528;28;20049;-64
2023/10/19 02:47:08;;;;;;;17.42;7.90;;;20.20;71.40;;;;;;6190968;28;20031;-65
2023/10/19 02:50:13;;;;;;;18.10;7.53;;;20.30;71.30;;;;;;6189097;28;20546;-66
2023/10/19 02:53:14;;;;;;;13.15;7.07;;;20.30;71.40;;;;;;6190672;28;20034;-65
2023/10/19 02:56:16;;;;;;;16.67;7.22;;;20.20;71.30;;;;;;6190570;28;20538;-65
2023/10/19 02:59:22;;;;;;;18.42;8.27;;;20.20;71.40;;;;;;6201483;28;20029;-64
2023/10/19 03:02:25;;;;;;;16.02;6.45;;;20.20;71.50;;;;;;6189089;28;20053;-64
2023/10/19 03:05:27;;;;;;;14.38;7.20;;;20.10;71.50;;;;;;6196724;28;20041;-66
2023/10/19 03:08:29;;;;;;;16.13;6.28;;;20.10;71.80;;;;;;6214403;28;20033;-64
2023/10/19 03:11:32;;;;;;;21.20;7.40;;;20.10;71.90;;;;;;6213035;28;20554;-67
2023/10/19 03:14:34;;;;;;;16.67;6.65;;;20.10;71.90;;;;;;6213334;28;20053;-66
2023/10/19 03:17:36;;;;;;;15.23;6.82;;;20.10;72.10;;;;;;6215022;28;20029;-65
2023/10/19 03:20:38;;;;;;;16.60;7.28;;;20.10;72.40;;;;;;6217618;28;20033;-64
2023/10/19 03:23:40;;;;;;;13.85;6.53;;;20.00;73.30;;;;;;6217892;28;20026;-66
2023/10/19 03:26:48;;;;;;;14.52;6.55;;;20.00;72.70;;;;;;6219347;28;20533;-66
2023/10/19 03:30:14;;;;;;;15.82;6.65;;;20.00;72.70;;;;;;6218996;28;20037;-66
2023/10/19 03:33:18;;;;;;;13.00;6.55;;;20.00;72.70;;;;;;6217659;28;20053;-65
2023/10/19 03:36:18;;;;;;;14.55;5.82;;;20.00;72.70;;;;;;6217419;28;20036;-65
2023/10/19 03:39:21;;;;;;;11.55;6.18;;;20.00;72.70;;;;;;6217409;28;20030;-64
2023/10/19 03:42:25;;;;;;;11.32;5.43;;;20.00;72.70;;;;;;6217642;28;20034;-66
2023/10/19 03:45:27;;;;;;;15.40;6.18;;;20.00;72.60;;;;;;6219070;28;20045;-65
2023/10/19 03:48:34;;;;;;;24.33;7.10;;;20.00;72.60;;;;;;6217300;28;20092;-65
2023/10/19 03:51:57;;;;;;;19.52;7.53;;;20.10;72.40;;;;;;6218761;28;20084;-64
2023/10/19 03:54:59;;;;;;;12.57;6.60;;;20.10;72.30;;;;;;6218563;28;20115;-65
2023/10/19 03:57:59;;;;;;;12.75;6.30;;;20.10;72.20;;;;;;6217093;28;20034;-65
2023/10/19 04:01:04;;;;;;;14.65;6.40;;;20.10;72.60;;;;;;6205681;28;20031;-65
2023/10/19 04:04:05;;;;;;;13.57;6.43;;;20.10;72.10;;;;;;6218071;28;20034;-65
2023/10/19 04:13:36;;;;;;;13.85;6.32;;;20.10;72.10;;;;;;6218284;28;20117;-65
2023/10/19 04:16:37;;;;;;;21.58;6.28;;;20.10;72.00;;;;;;6216530;28;20041;-65
2023/10/19 04:19:39;;;;;;;14.77;6.38;;;20.10;72.10;;;;;;6220449;28;20040;-65
2023/10/19 04:22:39;;;;;;;12.27;6.07;;;20.10;72.20;;;;;;6217616;28;20038;-64
2023/10/19 04:25:40;;;;;;;13.25;5.90;;;20.00;72.30;;;;;;6217815;28;20040;-64
2023/10/19 04:28:44;;;;;;;12.10;6.45;;;20.00;72.30;;;;;;6215585;28;20414;-65
2023/10/19 04:31:54;;;;;;;16.98;6.70;;;20.00;72.20;;;;;;6217372;28;20105;-65
2023/10/19 04:34:55;;;;;;;13.88;5.82;;;20.00;72.10;;;;;;6199357;28;20048;-65
2023/10/19 04:37:56;;;;;;;11.43;6.10;;;20.10;72.10;;;;;;6215813;28;20072;-65
2023/10/19 04:41:08;;;;;;;10.90;5.50;;;20.10;72.00;;;;;;6217149;28;20383;-64
2023/10/19 04:44:09;;;;;;;9.82;5.68;;;20.10;72.00;;;;;;6216980;28;20136;-65
2023/10/19 04:47:09;;;;;;;11.40;5.90;;;20.10;72.10;;;;;;6217236;28;20034;-65
2023/10/19 04:50:10;;;;;;;14.20;5.40;;;20.00;72.10;;;;;;6211390;28;20072;-65
2023/10/19 04:53:11;;;;;;;11.43;5.28;;;20.00;72.20;;;;;;6192762;28;20406;-65
2023/10/19 04:56:12;;;;;;;15.55;5.80;;;20.00;72.10;;;;;;6192702;28;20079;-64
2023/10/19 04:59:13;;;;;;;14.27;6.25;;;20.00;72.10;;;;;;6209053;28;20026;-65
2023/10/19 05:02:14;;;;;;;16.27;7.10;;;20.00;72.10;;;;;;6216649;28;20502;-67
2023/10/19 05:05:17;;;;;;;11.23;6.65;;;20.00;72.10;;;;;;6216608;28;20064;-67
2023/10/19 05:08:17;;;;;;;13.90;6.80;;;20.00;72.10;;;;;;6216683;28;20038;-64
2023/10/19 05:11:18;;;;;;;11.02;6.60;;;19.90;72.10;;;;;;6216543;28;20057;-66
2023/10/19 05:14:20;;;;;;;14.05;6.72;;;20.00;72.10;;;;;;6216413;28;20033;-66
2023/10/19 05:17:23;;;;;;;10.75;6.40;;;20.00;72.20;;;;;;6215074;28;20022;-65
2023/10/19 05:20:25;;;;;;;11.80;6.13;;;19.90;72.50;;;;;;6216289;28;20038;-64
2023/10/19 05:23:27;;;;;;;16.08;6.32;;;20.00;72.60;;;;;;6215088;28;20044;-64
2023/10/19 05:26:28;;;;;;;11.13;5.88;;;20.00;72.70;;;;;;6215170;28;20112;-65
2023/10/19 05:29:32;;;;;;;13.95;6.10;;;20.00;72.60;;;;;;6215909;28;20034;-65
2023/10/19 05:32:33;;;;;;;12.60;6.80;;;20.00;72.70;;;;;;6216155;28;20121;-66
2023/10/19 05:35:39;;;;;;;12.10;6.25;;;20.00;72.60;;;;;;6215878;28;20099;-66
2023/10/19 05:38:41;;;;;;;12.98;6.97;;;20.00;72.50;;;;;;6215990;28;20075;-65
2023/10/19 05:41:42;;;;;;;11.27;6.10;;;20.10;72.40;;;;;;6214066;28;20033;-65
2023/10/19 05:44:43;;;;;;;10.13;5.97;;;20.10;72.40;;;;;;6216099;28;20088;-66
2023/10/19 05:47:44;;;;;;;15.18;6.45;;;20.10;72.30;;;;;;6214412;28;20120;-66
2023/10/19 05:50:45;;;;;;;11.63;6.43;;;20.10;72.30;;;;;;6215241;28;20442;-66
2023/10/19 05:53:45;;;;;;;10.02;6.15;;;20.10;72.30;;;;;;6215406;28;20096;-65
2023/10/19 05:56:46;;;;;;;15.85;7.03;;;20.10;72.90;;;;;;6215230;28;20385;-65
2023/10/19 05:59:47;;;;;;;13.73;6.10;;;20.10;72.20;;;;;;6211524;28;20026;-65
2023/10/19 06:02:49;;;;;;;11.63;5.63;;;20.10;72.30;;;;;;6189431;28;20403;-68
2023/10/19 06:05:50;;;;;;;14.50;6.03;;;20.00;72.30;;;;;;6190626;28;20383;-65
2023/10/19 06:08:53;;;;;;;13.88;7.15;;;20.00;72.40;;;;;;6190598;28;20030;-64
2023/10/19 06:11:54;;;;;;;17.23;6.90;;;20.00;72.60;;;;;;6205174;28;20044;-66
2023/10/19 06:14:55;;;;;;;15.30;6.85;;;20.00;73.50;;;;;;6217728;28;20038;-68
2023/10/19 06:17:56;;;;;;;15.02;5.50;;;20.00;72.60;;;;;;6214999;28;20033;-65
2023/10/19 06:20:56;;;;;;;9.43;5.55;;;20.00;72.60;;;;;;6214670;28;20533;-64
2023/10/19 06:23:58;;;;;;;12.90;5.50;;;20.00;72.50;;;;;;6215193;28;20218;-66
2023/10/19 06:26:59;;;;;;;10.32;4.80;;;20.00;72.30;;;;;;6215217;28;20034;-66
2023/10/19 06:30:00;;;;;;;21.63;5.85;;;20.00;72.30;;;;;;6213216;28;20072;-65
2023/10/19 06:33:02;;;;;;;13.02;5.38;;;20.00;72.30;;;;;;6214991;28;20034;-66
2023/10/19 06:36:03;;;;;;;11.40;4.95;;;20.00;72.20;;;;;;6213282;28;20033;-65
2023/10/19 06:39:06;;;;;;;12.10;6.28;;;20.00;72.10;;;;;;6214429;28;20030;-65
2023/10/19 06:42:13;;;;;;;14.80;5.15;;;20.10;71.90;;;;;;6214450;28;20034;-66
2023/10/19 06:45:15;;;;;;;15.15;6.35;;;20.10;71.70;;;;;;6214302;28;20463;-65
2023/10/19 06:48:16;;;;;;;13.85;5.45;;;20.10;71.60;;;;;;6213893;28;20141;-66
2023/10/19 06:51:17;;;;;;;16.27;6.00;;;20.10;71.80;;;;;;6214322;28;20576;-66
2023/10/19 06:54:18;;;;;;;15.52;6.03;;;20.10;71.80;;;;;;6219099;28;20056;-66
2023/10/19 06:57:19;;;;;;;8.85;4.97;;;20.10;71.70;;;;;;6219256;28;20026;-66
2023/10/19 07:00:22;;;;;;;9.43;4.78;;;20.00;71.70;;;;;;6219297;28;20033;-66
2023/10/19 07:03:23;;;;;;;13.45;5.65;;;20.10;71.80;;;;;;6219711;28;20038;-64
2023/10/19 07:06:24;;;;;;;9.00;5.00;;;20.10;71.70;;;;;;6219079;28;20095;-65
2023/10/19 07:09:26;;;;;;;9.82;4.72;;;20.20;71.70;;;;;;6218983;28;20038;-64
2023/10/19 07:12:27;;;;;;;11.50;5.40;;;20.30;71.50;;;;;;6219211;28;20045;-65
2023/10/19 07:15:29;;;;;;;15.10;4.70;;;20.30;71.30;;;;;;6218961;28;20033;-65
2023/10/19 07:18:30;;;;;;;10.60;5.15;;;20.40;71.00;;;;;;6218763;28;20144;-65
2023/10/19 07:21:35;;;;;;;14.30;4.68;;;20.50;70.80;;;;;;6219006;28;20053;-64
2023/10/19 07:24:38;;;;;;;11.55;4.28;;;20.60;70.50;;;;;;6219135;28;20068;-66
2023/10/19 07:27:42;;;;;;;13.95;5.13;;;20.70;70.10;;;;;;6218486;28;20371;-66
2023/10/19 07:30:43;;;;;;;9.82;4.35;;;20.80;69.80;;;;;;6217845;28;20045;-66
2023/10/19 07:33:49;;;;;;;7.90;4.40;;;20.80;69.10;;;;;;6218514;28;20142;-65
2023/10/19 07:36:51;;;;;;;16.25;4.75;;;20.80;69.10;;;;;;6218531;28;20082;-67
2023/10/19 07:39:52;;;;;;;14.05;5.00;;;20.80;69.00;;;;;;6204749;28;20035;-67
2023/10/19 07:42:54;;;;;;;12.25;6.00;;;20.90;68.90;;;;;;6194327;28;20482;-67
2023/10/19 07:45:56;;;;;;;10.45;4.72;;;20.90;68.50;;;;;;6192505;28;20077;-66
2023/10/19 07:48:59;;;;;;;18.63;5.75;;;20.90;68.50;;;;;;6216287;28;20450;-64
2023/10/19 07:52:00;;;;;;;11.07;5.90;;;20.90;68.60;;;;;;6216628;28;20030;-64
2023/10/19 07:55:02;;;;;;;15.77;5.40;;;20.90;68.50;;;;;;6216424;28;20042;-66
2023/10/19 07:58:03;;;;;;;11.13;4.45;;;20.90;68.50;;;;;;6216281;28;20026;-65
2023/10/19 08:01:05;;;;;;;14.68;5.53;;;20.90;68.50;;;;;;6216372;28;20053;-67
2023/10/19 08:04:07;;;;;;;18.15;5.20;;;21.00;68.30;;;;;;6216652;28;20100;-66
2023/10/19 08:07:08;;;;;;;13.88;4.53;;;21.10;68.00;;;;;;6217390;28;20748;-65
2023/10/19 08:10:12;;;;;;;10.15;4.18;;;21.10;68.00;;;;;;6216099;28;20026;-65
2023/10/19 08:13:12;;;;;;;9.70;4.35;;;21.20;68.00;;;;;;6214315;28;20121;-66
2023/10/19 08:16:13;;;;;;;11.95;4.00;;;21.30;67.90;;;;;;6215868;28;20091;-65
2023/10/19 08:19:15;;;;;;;6.82;3.97;;;21.50;67.30;;;;;;6215655;28;20022;-66
2023/10/19 08:22:16;;;;;;;18.05;4.72;;;21.50;66.90;;;;;;6214282;28;20037;-65
2023/10/19 08:25:17;;;;;;;11.48;4.53;;;21.60;66.70;;;;;;6215752;28;20613;-68
2023/10/19 08:28:18;;;;;;;14.82;3.95;;;21.80;66.60;;;;;;6215565;28;20037;-66
2023/10/19 08:31:19;;;;;;;7.32;3.42;;;21.90;66.00;;;;;;6214492;28;20219;-65
2023/10/19 08:34:20;;;;;;;12.43;3.55;;;22.10;65.00;;;;;;6215390;28;20037;-65
2023/10/19 08:37:21;;;;;;;9.85;3.53;;;22.00;64.20;;;;;;6215666;28;20041;-66
2023/10/19 08:40:24;;;;;;;15.30;3.78;;;22.00;64.40;;;;;;6215598;28;20030;-65
2023/10/19 08:43:25;;;;;;;15.25;4.40;;;22.00;64.50;;;;;;6215779;28;20447;-65
2023/10/19 08:46:26;;;;;;;11.00;3.97;;;22.00;64.20;;;;;;6169578;28;1365741;-66
2023/10/19 08:49:27;;;;;;;8.23;3.70;;;22.00;64.20;;;;;;6216632;28;20029;-65
2023/10/19 08:52:29;;;;;;;14.40;4.45;;;22.00;63.70;;;;;;6216989;28;20124;-66
2023/10/19 08:55:30;;;;;;;6.20;3.10;;;22.00;63.90;;;;;;6216777;28;20132;-66
2023/10/19 08:58:31;;;;;;;14.35;4.00;;;22.00;63.70;;;;;;6216920;28;20030;-67
2023/10/19 09:01:35;;;;;;;6.25;3.42;;;22.00;63.60;;;;;;6215380;28;20144;-65
2023/10/19 09:04:43;;;;;;;5.90;3.35;;;22.10;63.50;;;;;;6214924;28;20046;-66
2023/10/19 09:07:46;;;;;;;11.02;4.22;;;22.10;63.50;;;;;;6215060;28;20037;-65
2023/10/19 09:10:51;;;;;;;7.60;4.07;;;22.10;63.60;;;;;;6216085;28;20617;-65
2023/10/19 09:13:53;;;;;;;9.93;4.55;;;22.10;63.30;;;;;;6216517;28;20061;-67
2023/10/19 09:16:55;;;;;;;18.67;4.30;;;22.10;63.30;;;;;;6215533;28;20030;-65
2023/10/19 09:19:57;;;;;;;20.27;4.38;;;22.20;63.20;;;;;;6214371;28;20030;-65
2023/10/19 09:22:58;;;;;;;12.48;3.58;;;22.20;63.10;;;;;;6216157;28;20022;-66
2023/10/19 09:26:03;;;;;;;11.07;4.65;;;22.20;62.70;;;;;;6216529;28;20116;-66
2023/10/19 09:29:04;;;;;;;8.75;3.60;;;22.20;62.60;;;;;;6216084;28;20052;-66
2023/10/19 09:32:07;;;;;;;8.23;3.63;;;22.20;62.50;;;;;;6215944;28;20034;-66
2023/10/19 09:35:10;;;;;;;6.15;3.25;;;22.10;62.30;;;;;;6216016;28;20041;-65
2023/10/19 09:38:11;;;;;;;12.27;3.85;;;22.10;62.50;;;;;;6213393;28;20030;-67
2023/10/19 09:41:13;;;;;;;12.85;3.63;;;22.20;62.70;;;;;;6191364;28;20034;-65
2023/10/19 09:44:16;;;;;;;20.13;6.72;;;22.20;62.50;;;;;;6191086;28;20120;-66
2023/10/19 09:47:35;;;;;;;12.23;4.53;;;22.20;62.40;;;;;;6189651;28;20636;-66
2023/10/19 09:50:36;;;;;;;11.82;4.57;;;22.10;62.60;;;;;;6190354;28;20030;-67
2023/10/19 09:53:39;;;;;;;18.50;4.18;;;22.20;62.80;;;;;;6190723;28;20030;-65
2023/10/19 09:56:46;;;;;;;13.32;4.45;;;22.30;62.80;;;;;;6205668;28;20038;-67
2023/10/19 09:59:55;;;;;;;30.37;6.43;;;22.40;62.50;;;;;;6194042;28;20026;-64
2023/10/19 10:02:56;;;;;;;18.23;5.18;;;22.50;62.30;;;;;;6189441;28;20041;-67
2023/10/19 10:05:57;;;;;;;12.55;4.22;;;22.60;62.10;;;;;;6190196;28;20058;-66
2023/10/19 10:09:03;;;;;;;10.55;4.30;;;22.70;62.80;;;;;;6189993;28;20121;-66
2023/10/19 10:12:24;;;;;;;10.40;5.00;;;22.80;61.40;;;;;;6203053;28;20401;-65
2023/10/19 10:15:40;;;;;;;8.07;3.67;;;22.90;61.30;;;;;;6196406;28;20534;-67
2023/10/19 10:18:44;;;;;;;7.03;3.20;;;22.80;61.20;;;;;;6214906;28;20097;-67
2023/10/19 10:22:05;;;;;;;6.90;3.97;;;22.90;61.20;;;;;;6214742;28;20026;-66
2023/10/19 10:25:07;;;;;;;9.63;3.78;;;23.00;60.90;;;;;;6213179;28;20095;-66
2023/10/19 10:28:14;;;;;;;12.98;3.65;;;23.10;60.50;;;;;;6197041;28;20038;-67
2023/10/19 10:31:18;;;;;;;23.58;5.75;;;23.20;59.70;;;;;;6213621;28;20034;-65
2023/10/19 10:34:37;;;;;;;9.38;3.67;;;23.30;59.70;;;;;;6214596;28;20064;-66
2023/10/19 10:37:39;;;;;;;;;;;23.50;59.50;;;;;;6190844;28;20458;-67
2023/10/19 10:40:48;;;;;;;16.60;4.63;;;23.80;59.00;;;;;;6190339;28;19910;-65
2023/10/19 10:43:56;;;;;;;10.65;3.55;;;24.10;58.70;;;;;;6190929;28;20061;-65
2023/10/19 10:46:57;;;;;;;5.10;3.50;;;24.30;57.90;;;;;;6190637;28;20034;-67
2023/10/19 10:50:00;;;;;;;17.95;4.75;;;24.30;57.10;;;;;;6172661;28;20038;-68
2023/10/19 10:53:01;;;;;;;6.25;3.30;;;24.50;57.20;;;;;;6190117;28;20494;-67
2023/10/19 10:56:03;;;;;;;8.07;3.30;;;24.60;56.60;;;;;;6190122;28;20049;-68
2023/10/19 10:59:12;;;;;;;17.65;3.45;;;24.70;56.60;;;;;;6188673;28;20034;-67
2023/10/19 11:02:21;;;;;;;7.60;2.88;;;24.90;55.90;;;;;;6191339;28;20118;-68
2023/10/19 11:05:24;;;;;;;4.70;1.92;;;25.10;54.50;;;;;;6189709;28;20380;-67
2023/10/19 11:08:25;;;;;;;16.75;3.30;;;25.40;54.40;;;;;;6189210;28;20037;-65
2023/10/19 11:11:26;;;;;;;14.68;2.30;;;25.90;53.30;;;;;;6189261;28;20031;-66
2023/10/19 11:14:27;;;;;;;2.92;1.80;;;26.30;52.10;;;;;;6189897;28;20030;-67
2023/10/19 11:17:31;;;;;;;4.07;1.45;;;26.50;51.60;;;;;;6189933;28;20572;-66
2023/10/19 11:20:32;;;;;;;2.88;1.02;;;26.70;50.60;;;;;;6190020;28;20030;-67
2023/10/19 11:23:44;;;;;;;1.23;0.70;;;26.90;49.10;;;;;;6191625;28;20037;-66
2023/10/19 11:26:45;;;;;;;0.93;0.70;;;27.00;46.60;;;;;;6214273;28;20029;-67
2023/10/19 11:30:04;;;;;;;2.55;1.23;;;27.20;45.70;;;;;;6213212;28;20034;-67
2023/10/19 11:33:05;;;;;;;2.83;0.93;;;27.40;45.00;;;;;;6214250;28;20037;-67
2023/10/19 11:36:07;;;;;;;1.60;0.60;;;27.50;43.80;;;;;;6214601;28;20042;-66
2023/10/19 11:39:11;;;;;;;1.58;0.60;;;27.70;43.00;;;;;;6217442;28;20034;-67
2023/10/19 11:42:13;;;;;;;2.28;0.40;;;27.80;42.70;;;;;;6219173;28;20470;-68
2023/10/19 11:45:16;;;;;;;2.15;0.70;;;27.90;42.20;;;;;;6218415;28;20073;-66
2023/10/19 11:48:17;;;;;;;2.63;0.60;;;28.00;40.80;;;;;;6218528;28;20038;-67
2023/10/19 11:51:18;;;;;;;0.63;0.45;;;27.70;40.90;;;;;;6219193;28;20072;-66
2023/10/19 11:54:19;;;;;;;5.22;2.88;;;28.00;40.40;;;;;;6217650;28;20034;-68
2023/10/19 11:57:20;;;;;;;4.90;1.55;;;28.00;40.70;;;;;;6219341;28;20383;-65
2023/10/19 12:00:21;;;;;;;4.93;1.25;;;28.00;41.20;;;;;;6209901;28;20030;-67
2023/10/19 12:03:22;;;;;;;3.35;0.85;;;28.10;41.00;;;;;;6193785;28;20030;-68
2023/10/19 12:06:25;;;;;;;7.05;1.00;;;28.10;41.20;;;;;;6191986;28;20403;-65
2023/10/19 12:09:26;;;;;;;2.65;0.80;;;28.10;41.50;;;;;;6193539;28;20030;-66
2023/10/19 12:12:27;;;;;;;1.77;0.57;;;28.10;41.10;;;;;;6210931;28;20037;-66
2023/10/19 12:15:28;;;;;;;1.30;0.85;;;28.00;40.90;;;;;;6217767;28;20072;-67
2023/10/19 12:18:29;;;;;;;0.60;0.50;;;27.90;41.20;;;;;;6217509;28;20590;-67
2023/10/19 12:21:31;;;;;;;2.75;0.55;;;27.80;41.10;;;;;;6199627;28;20060;-66
2023/10/19 12:24:31;;;;;;;7.50;0.77;;;27.60;41.00;;;;;;6218034;28;20025;-67
2023/10/19 12:27:32;;;;;;;2.33;1.05;;;27.60;41.20;;;;;;6216356;28;20148;-65
2023/10/19 12:30:36;;;;;;;1.17;0.20;;;27.50;41.50;;;;;;6217573;28;20038;-68
2023/10/19 12:33:38;;;;;;;1.50;0.63;;;27.30;41.40;;;;;;6216241;28;20034;-67
2023/10/19 12:36:41;;;;;;;0.43;0.30;;;27.20;41.50;;;;;;6217401;28;20046;-66
2023/10/19 12:39:47;;;;;;;2.25;0.40;;;27.20;41.40;;;;;;6217097;28;20033;-65
2023/10/19 12:42:48;;;;;;;0.63;0.40;;;27.00;41.60;;;;;;6215826;28;20491;-69
2023/10/19 12:45:57;;;;;;;0.65;0.45;;;27.00;41.80;;;;;;6215577;28;20042;-67
2023/10/19 12:48:58;;;;;;;1.55;0.30;;;26.80;41.80;;;;;;6216664;28;20085;-65
2023/10/19 12:52:00;;;;;;;0.30;0.30;;;26.90;42.10;;;;;;6216405;28;20100;-66
2023/10/19 12:55:04;;;;;;;1.65;0.63;;;26.80;42.10;;;;;;6217098;28;20045;-66
2023/10/19 12:58:14;;;;;;;0.57;0.30;;;26.80;42.20;;;;;;6217102;28;20493;-67
2023/10/19 13:01:19;;;;;;;2.75;0.60;;;26.80;42.30;;;;;;6216905;28;20541;-66
2023/10/19 13:04:23;;;;;;;3.17;0.40;;;26.70;42.00;;;;;;6215552;28;20050;-64
2023/10/19 13:07:26;;;;;;;0.40;0.40;;;26.70;42.20;;;;;;6216918;28;20410;-66
2023/10/19 13:10:34;;;;;;;0.65;0.50;;;26.60;42.20;;;;;;6214834;28;20048;-65
2023/10/19 13:13:39;;;;;;;0.40;0.40;;;26.50;42.50;;;;;;6190731;28;20360;-66
2023/10/19 13:16:40;;;;;;;0.95;0.40;;;26.50;42.70;;;;;;6191056;28;20034;-65
2023/10/19 13:19:41;;;;;;;4.03;0.40;;;26.40;42.70;;;;;;6191875;28;20113;-66
2023/10/19 13:22:42;;;;;;;0.50;0.40;;;26.40;42.90;;;;;;6190308;28;20026;-66
2023/10/19 13:25:49;;;;;;;0.30;0.30;;;26.40;43.00;;;;;;6212324;28;20084;-66
2023/10/19 13:28:52;;;;;;;3.83;0.40;;;26.40;42.60;;;;;;6214679;28;20063;-67
2023/10/19 13:31:53;;;;;;;1.05;0.38;;;26.40;42.50;;;;;;6215601;28;20276;-67
2023/10/19 13:34:54;;;;;;;1.33;0.43;;;26.40;42.70;;;;;;6214143;28;20042;-68
2023/10/19 13:37:56;;;;;;;0.32;0.32;;;26.30;42.90;;;;;;6215430;28;20025;-66
2023/10/19 13:40:57;;;;;;;0.85;0.30;;;26.30;43.00;;;;;;6214023;28;20497;-65
2023/10/19 13:43:58;;;;;;;0.43;0.30;;;26.30;42.90;;;;;;6215152;28;20057;-66
2023/10/19 13:46:59;;;;;;;2.60;0.47;;;26.30;42.60;;;;;;6213978;28;20344;-66
2023/10/19 13:50:00;;;;;;;0.40;0.40;;;26.20;42.70;;;;;;6216124;28;20037;-66
2023/10/19 13:53:04;;;;;;;0.40;0.30;;;26.30;42.60;;;;;;6215450;28;20040;-67
2023/10/19 13:56:09;;;;;;;0.75;0.40;;;26.20;42.70;;;;;;6215233;28;20033;-67
2023/10/19 13:59:11;;;;;;;2.88;0.40;;;26.20;43.00;;;;;;6213512;28;20030;-68
2023/10/19 14:02:11;;;;;;;1.00;0.20;;;26.10;43.30;;;;;;6212506;28;20033;-67
2023/10/19 14:05:13;;;;;;;1.65;0.55;;;26.00;43.50;;;;;;6213714;28;20115;-68
2023/10/19 14:08:16;;;;;;;0.73;0.32;;;26.30;43.80;;;;;;6214839;28;20124;-66
2023/10/19 14:11:17;;;;;;;1.52;0.32;;;26.00;43.80;;;;;;6214799;28;20092;-67
2023/10/19 14:14:17;;;;;;;2.45;0.68;;;26.00;44.30;;;;;;6214590;28;20148;-65
2023/10/19 14:17:18;;;;;;;1.10;0.45;;;26.00;43.50;;;;;;6214577;28;20037;-68
2023/10/19 14:20:20;;;;;;;0.35;0.35;;;26.00;43.50;;;;;;6214048;28;20026;-66
2023/10/19 14:23:21;;;;;;;6.60;0.70;;;26.00;43.70;;;;;;6214507;28;20124;-66
2023/10/19 14:26:22;;;;;;;2.35;0.52;;;26.00;43.90;;;;;;6214701;28;20405;-65
2023/10/19 14:29:23;;;;;;;2.05;0.68;;;25.90;44.10;;;;;;6212905;28;20029;-64
2023/10/19 14:32:24;;;;;;;0.75;0.40;;;25.90;44.50;;;;;;6214578;28;20120;-65
2023/10/19 14:35:25;;;;;;;5.70;0.40;;;25.80;44.60;;;;;;6196726;28;20034;-65
2023/10/19 14:38:27;;;;;;;1.88;0.65;;;25.80;44.70;;;;;;6215133;28;20038;-66
2023/10/19 14:41:28;;;;;;;1.42;0.82;;;25.70;44.70;;;;;;6215322;28;20113;-66
2023/10/19 14:44:29;;;;;;;2.67;0.52;;;25.70;44.90;;;;;;6212943;28;20041;-67
2023/10/19 14:47:30;;;;;;;3.28;0.98;;;25.60;45.10;;;;;;6214673;28;20033;-66
2023/10/19 14:50:31;;;;;;;0.40;0.40;;;25.50;45.20;;;;;;6214096;28;20030;-66
2023/10/19 14:53:32;;;;;;;0.77;0.43;;;25.50;45.20;;;;;;6214323;28;20026;-67
2023/10/19 14:56:33;;;;;;;4.43;0.40;;;25.50;45.20;;;;;;6213201;28;20485;-65
2023/10/19 14:59:35;;;;;;;7.30;1.25;;;25.50;45.10;;;;;;6212358;28;20037;-67
2023/10/19 15:02:36;;;;;;;1.80;0.60;;;25.50;45.10;;;;;;6214104;28;20083;-65
2023/10/19 15:05:38;;;;;;;1.45;0.47;;;25.50;45.80;;;;;;6213937;28;20682;-66
2023/10/19 15:08:39;;;;;;;1.38;0.38;;;25.50;45.00;;;;;;6212583;28;20409;-66
2023/10/19 15:11:40;;;;;;;0.93;0.65;;;25.50;45.00;;;;;;6213777;28;20033;-65
2023/10/19 15:14:42;;;;;;;1.45;0.50;;;25.50;45.10;;;;;;6217310;28;20606;-65
2023/10/19 15:18:08;;;;;;;0.80;0.57;;;25.50;45.10;;;;;;6199135;28;20038;-66
2023/10/19 15:21:34;;;;;;;1.27;0.70;;;25.50;44.90;;;;;;6194650;28;20035;-65
2023/10/19 15:24:36;;;;;;;1.17;0.82;;;25.50;45.00;;;;;;6194768;28;20386;-65
2023/10/19 15:28:02;;;;;;;2.58;1.02;;;25.50;44.90;;;;;;6194334;28;20034;-66
2023/10/19 15:31:06;;;;;;;1.20;0.52;;;25.50;44.90;;;;;;6194064;28;20042;-66
2023/10/19 15:34:33;;;;;;;1.55;0.50;;;25.50;44.90;;;;;;6194470;28;20042;-66
2023/10/19 15:37:35;;;;;;;6.18;1.20;;;25.50;44.80;;;;;;6192666;28;20501;-66
2023/10/19 15:40:39;;;;;;;0.40;0.40;;;25.50;44.90;;;;;;6192084;28;20061;-65
2023/10/19 15:43:40;;;;;;;1.10;0.50;;;25.50;44.90;;;;;;6194511;28;20023;-65
2023/10/19 15:47:11;;;;;;;1.45;0.50;;;25.50;44.90;;;;;;6194669;28;20054;-67
2023/10/19 15:50:14;;;;;;;1.83;1.02;;;25.50;44.80;;;;;;6192027;28;20033;-64
2023/10/19 15:53:40;;;;;;;2.30;0.60;;;25.50;44.90;;;;;;6194420;28;20038;-66
2023/10/19 15:57:05;;;;;;;1.95;0.75;;;25.60;45.50;;;;;;6192750;28;20038;-65
2023/10/19 16:00:13;;;;;;;0.32;0.32;;;25.50;44.80;;;;;;6199248;28;20121;-66